Time;durP1;ratioP1;P1;durP2;ratioP2;P2;SDS_P1;SDS_P2;PMS_P1;PMS_P2;Temp;Humidity;BMP_temperature;BMP_pressure;BME280_temperature;BME280_humidity;BME280_pressure;Samples;Min_cycle;Max_cycle;Signal;HPM_P1;HPM_P2
2022/12/03 00:02:46;;;;;;;;;;;;;;;;;;8416968;28;28825;-80
2022/12/03 00:06:46;;;;;;;;;;;;;;;;;;8433493;28;29309;-81
2022/12/03 00:10:46;;;;;;;;;;;;;;;;;;8431530;28;27425;-82
2022/12/03 00:14:46;;;;;;;;;;;;;;;;;;8417578;28;28245;-82
2022/12/03 00:18:46;;;;;;;;;;;;;;;;;;8436008;28;27471;-82
2022/12/03 00:22:46;;;;;;;;;;;;;;;;;;8414354;28;28440;-81
2022/12/03 00:26:46;;;;;;;;;;;;;;;;;;8421343;28;28653;-81
2022/12/03 00:30:46;;;;;;;;;;;;;;;;;;8438479;28;27597;-80
2022/12/03 00:34:47;;;;;;;;;;;;;;;;;;8438707;28;27391;-80
2022/12/03 00:38:47;;;;;;;;;;;;;;;;;;8443594;28;27332;-80
2022/12/03 00:42:47;;;;;;;;;;;;;;;;;;8440305;28;27820;-79
2022/12/03 00:46:47;;;;;;;;;;;;;;;;;;8435245;28;29472;-80
2022/12/03 00:50:47;;;;;;;;;;;;;;;;;;8416714;28;28268;-80
2022/12/03 00:54:47;;;;;;;;;;;;;;;;;;8421395;28;28440;-80
2022/12/03 00:58:47;;;;;;;;;;;;;;;;;;8426676;28;28436;-80
2022/12/03 01:02:47;;;;;;;;;;;;;;;;;;8422925;28;28654;-81
2022/12/03 01:06:47;;;;;;;;;;;;;;;;;;8434866;28;27260;-80
2022/12/03 01:10:47;;;;;;;;;;;;;;;;;;8415831;28;28588;-81
2022/12/03 01:14:47;;;;;;;;;;;;;;;;;;8419301;28;29615;-80
2022/12/03 01:18:51;;;;;;;;;;;;;;;;;;8434651;28;28263;-80
2022/12/03 01:22:51;;;;;;;;;;;;;;;;;;8435653;28;27491;-80
2022/12/03 01:26:54;;;;;;;;;;;;;;;;;;8436118;28;47472;-80
2022/12/03 01:35:13;;;;;;;;;;;;;;;;;;8433944;27;27490;-82
2022/12/03 01:39:13;;;;;;;;;;;;;;;;;;8417462;28;29062;-80
2022/12/03 01:43:14;;;;;;;;;;;;;;;;;;8418290;28;28900;-80
2022/12/03 01:47:14;;;;;;;;;;;;;;;;;;8415042;28;29113;-81
2022/12/03 01:51:14;;;;;;;;;;;;;;;;;;8439147;28;27314;-81
2022/12/03 01:55:14;;;;;;;;;;;;;;;;;;8444266;28;28818;-82
2022/12/03 01:59:14;;;;;;;;;;;;;;;;;;8427558;28;28570;-82
2022/12/03 02:03:14;;;;;;;;;;;;;;;;;;8424431;28;28608;-82
2022/12/03 02:07:14;;;;;;;;;;;;;;;;;;8422855;28;29092;-81
2022/12/03 02:11:14;;;;;;;;;;;;;;;;;;8418603;28;28506;-81
2022/12/03 02:15:14;;;;;;;;;;;;;;;;;;8423729;28;28557;-84
2022/12/03 02:19:14;;;;;;;;;;;;;;;;;;8422128;28;30194;-82
2022/12/03 02:23:15;;;;;;;;;;;;;;;;;;8440839;28;27416;-84
2022/12/03 02:27:15;;;;;;;;;;;;;;;;;;8420418;28;28925;-82
2022/12/03 02:31:15;;;;;;;;;;;;;;;;;;8441739;28;27483;-81
2022/12/03 02:35:15;;;;;;;;;;;;;;;;;;8439275;28;27856;-83
2022/12/03 02:39:15;;;;;;;;;;;;;;;;;;8438303;28;27683;-82
2022/12/03 02:43:15;;;;;;;;;;;;;;;;;;8420847;28;28476;-81
2022/12/03 02:47:15;;;;;;;;;;;;;;;;;;8438464;28;27430;-79
2022/12/03 02:51:15;;;;;;;;;;;;;;;;;;8439816;28;27288;-79
2022/12/03 02:55:15;;;;;;;;;;;;;;;;;;8438796;28;27657;-80
2022/12/03 02:59:15;;;;;;;;;;;;;;;;;;8420473;28;28430;-81
2022/12/03 03:03:15;;;;;;;;;;;;;;;;;;8419521;28;28232;-82
2022/12/03 03:07:16;;;;;;;;;;;;;;;;;;8435884;28;28724;-82
2022/12/03 03:11:16;;;;;;;;;;;;;;;;;;8435822;28;28060;-81
2022/12/03 03:15:16;;;;;;;;;;;;;;;;;;8434999;28;27266;-82
2022/12/03 03:19:16;;;;;;;;;;;;;;;;;;8436849;28;27399;-80
2022/12/03 03:23:16;;;;;;;;;;;;;;;;;;8435901;28;28695;-81
2022/12/03 03:27:16;;;;;;;;;;;;;;;;;;8437527;28;27338;-81
2022/12/03 03:31:16;;;;;;;;;;;;;;;;;;8419786;28;28837;-80
2022/12/03 03:35:17;;;;;;;;;;;;;;;;;;8421489;28;29000;-79
2022/12/03 03:39:17;;;;;;;;;;;;;;;;;;8436049;28;28082;-80
2022/12/03 03:43:17;;;;;;;;;;;;;;;;;;8438674;28;27232;-80
2022/12/03 03:47:17;;;;;;;;;;;;;;;;;;8430981;28;29728;-79
2022/12/03 03:51:17;;;;;;;;;;;;;;;;;;8414685;28;28459;-80
2022/12/03 03:55:19;;;;;;;;;;;;;;;;;;8433270;28;27903;-79
2022/12/03 03:59:19;;;;;;;;;;;;;;;;;;8437114;27;27388;-79
2022/12/03 04:03:19;;;;;;;;;;;;;;;;;;8440833;28;27550;-81
2022/12/03 04:07:19;;;;;;;;;;;;;;;;;;8422416;28;28245;-80
2022/12/03 04:15:38;;;;;;;;;;;;;;;;;;8441280;28;27781;-80
2022/12/03 04:19:38;;;;;;;;;;;;;;;;;;8441100;28;27354;-79
2022/12/03 04:23:38;;;;;;;;;;;;;;;;;;8424332;28;28155;-81
2022/12/03 04:36:16;;;;;;;;;;;;;;;;;;8441256;28;27567;-80
2022/12/03 04:44:35;;;;;;;;;;;;;;;;;;8436956;28;27343;-80
2022/12/03 04:48:35;;;;;;;;;;;;;;;;;;8435790;28;27246;-80
2022/12/03 04:52:35;;;;;;;;;;;;;;;;;;8439478;28;27416;-82
2022/12/03 04:56:36;;;;;;;;;;;;;;;;;;8422440;28;28543;-81
2022/12/03 05:00:36;;;;;;;;;;;;;;;;;;8437095;28;27065;-82
2022/12/03 05:04:36;;;;;;;;;;;;;;;;;;8438303;28;27629;-82
2022/12/03 05:08:36;;;;;;;;;;;;;;;;;;8437577;27;28750;-83
2022/12/03 05:12:36;;;;;;;;;;;;;;;;;;8441402;28;27231;-81
2022/12/03 05:16:36;;;;;;;;;;;;;;;;;;8438412;28;27191;-80
2022/12/03 05:20:42;;;;;;;;;;;;;;;;;;8436034;28;27359;-79
2022/12/03 05:24:42;;;;;;;;;;;;;;;;;;8439147;28;27930;-81
2022/12/03 05:28:42;;;;;;;;;;;;;;;;;;8422228;28;28472;-80
2022/12/03 05:32:42;;;;;;;;;;;;;;;;;;8421066;28;28252;-80
2022/12/03 05:36:42;;;;;;;;;;;;;;;;;;8418467;28;29607;-80
2022/12/03 05:40:42;;;;;;;;;;;;;;;;;;8438758;28;27580;-80
2022/12/03 05:44:43;;;;;;;;;;;;;;;;;;8418986;28;29956;-80
2022/12/03 05:48:43;;;;;;;;;;;;;;;;;;8441202;28;27362;-81
2022/12/03 05:52:43;;;;;;;;;;;;;;;;;;8417938;28;28628;-80
2022/12/03 05:56:43;;;;;;;;;;;;;;;;;;8435497;28;29360;-82
2022/12/03 06:00:43;;;;;;;;;;;;;;;;;;8443513;28;27330;-82
2022/12/03 06:04:43;;;;;;;;;;;;;;;;;;8440028;28;27290;-82
2022/12/03 06:08:43;;;;;;;;;;;;;;;;;;8438127;28;27046;-79
2022/12/03 06:12:43;;;;;;;;;;;;;;;;;;8437972;28;27650;-81
2022/12/03 06:16:43;;;;;;;;;;;;;;;;;;8434922;28;28593;-81
2022/12/03 06:20:43;;;;;;;;;;;;;;;;;;8437645;28;27345;-80
2022/12/03 06:24:43;;;;;;;;;;;;;;;;;;8436103;28;27295;-80
2022/12/03 06:28:46;;;;;;;;;;;;;;;;;;8417214;28;28569;-80
2022/12/03 06:32:46;;;;;;;;;;;;;;;;;;8438256;28;27357;-79
2022/12/03 06:36:48;;;;;;;;;;;;;;;;;;8435781;28;27718;-79
2022/12/03 06:40:48;;;;;;;;;;;;;;;;;;8417510;28;28638;-80
2022/12/03 06:44:48;;;;;;;;;;;;;;;;;;8434844;28;28218;-80
2022/12/03 06:48:49;;;;;;;;;;;;;;;;;;8416587;28;29058;-80
2022/12/03 06:52:49;;;;;;;;;;;;;;;;;;8415381;28;28550;-79
2022/12/03 06:56:49;;;;;;;;;;;;;;;;;;8418101;28;28749;-80
2022/12/03 07:00:49;;;;;;;;;;;;;;;;;;8431031;28;28591;-80
2022/12/03 07:04:49;;;;;;;;;;;;;;;;;;8415807;28;28467;-81
2022/12/03 07:08:49;;;;;;;;;;;;;;;;;;8417388;28;29696;-80
2022/12/03 07:12:49;;;;;;;;;;;;;;;;;;8411073;28;28516;-80
2022/12/03 07:16:49;;;;;;;;;;;;;;;;;;8432583;28;28989;-82
2022/12/03 07:20:49;;;;;;;;;;;;;;;;;;8416701;28;28819;-80
2022/12/03 07:24:49;;;;;;;;;;;;;;;;;;8415234;28;28685;-81
2022/12/03 07:28:50;;;;;;;;;;;;;;;;;;8416489;28;28560;-80
2022/12/03 07:32:50;;;;;;;;;;;;;;;;;;8436848;28;29683;-82
2022/12/03 07:36:50;;;;;;;;;;;;;;;;;;8421435;28;28550;-81
2022/12/03 07:40:50;;;;;;;;;;;;;;;;;;8422906;28;28479;-81
2022/12/03 07:44:50;;;;;;;;;;;;;;;;;;8423634;28;28744;-82
2022/12/03 07:48:50;;;;;;;;;;;;;;;;;;8418803;28;29147;-82
2022/12/03 07:52:50;;;;;;;;;;;;;;;;;;8409823;28;28699;-80
2022/12/03 07:56:50;;;;;;;;;;;;;;;;;;8437258;28;27255;-81
2022/12/03 08:00:50;;;;;;;;;;;;;;;;;;8431907;28;27815;-81
2022/12/03 08:04:50;;;;;;;;;;;;;;;;;;8408445;28;29706;-81
2022/12/03 08:08:50;;;;;;;;;;;;;;;;;;8410466;28;28486;-80
2022/12/03 08:12:51;;;;;;;;;;;;;;;;;;8428682;28;27327;-81
2022/12/03 08:16:51;;;;;;;;;;;;;;;;;;8424422;28;28547;-80
2022/12/03 08:20:51;;;;;;;;;;;;;;;;;;8433466;28;27332;-81
2022/12/03 08:24:51;;;;;;;;;;;;;;;;;;8429752;28;27123;-80
2022/12/03 08:28:51;;;;;;;;;;;;;;;;;;8407949;28;30142;-79
2022/12/03 08:32:51;;;;;;;;;;;;;;;;;;8410271;28;29039;-80
2022/12/03 08:36:52;;;;;;;;;;;;;;;;;;8409875;28;30047;-81
2022/12/03 08:40:54;;;;;;;;;;;;;;;;;;8415667;28;29899;-82
2022/12/03 08:44:54;;;;;;;;;;;;;;;;;;8438369;28;27086;-81
2022/12/03 08:48:54;;;;;;;;;;;;;;;;;;8422624;28;28525;-82
2022/12/03 08:52:54;;;;;;;;;;;;;;;;;;8423581;28;28471;-82
2022/12/03 08:56:54;;;;;;;;;;;;;;;;;;8441493;28;27579;-82
2022/12/03 09:00:54;;;;;;;;;;;;;;;;;;8442812;28;27214;-82
2022/12/03 09:04:54;;;;;;;;;;;;;;;;;;8422289;28;28670;-81
2022/12/03 09:08:54;;;;;;;;;;;;;;;;;;8421367;28;28537;-81
2022/12/03 09:12:54;;;;;;;;;;;;;;;;;;8438995;27;27669;-83
2022/12/03 09:16:55;;;;;;;;;;;;;;;;;;8426597;28;28795;-81
2022/12/03 09:20:55;;;;;;;;;;;;;;;;;;8425091;28;28888;-83
2022/12/03 09:24:56;;;;;;;;;;;;;;;;;;8442457;28;27480;-81
2022/12/03 09:28:56;;;;;;;;;;;;;;;;;;8440913;28;27543;-81
2022/12/03 09:32:56;;;;;;;;;;;;;;;;;;8442734;28;28980;-80
2022/12/03 09:36:56;;;;;;;;;;;;;;;;;;8438495;28;27324;-81
2022/12/03 09:40:56;;;;;;;;;;;;;;;;;;8420205;28;28907;-81
2022/12/03 09:44:56;;;;;;;;;;;;;;;;;;8438569;28;27416;-81
2022/12/03 09:48:56;;;;;;;;;;;;;;;;;;8419392;28;28527;-81
2022/12/03 09:52:56;;;;;;;;;;;;;;;;;;8430659;27;27771;-80
2022/12/03 09:56:56;;;;;;;;;;;;;;;;;;8440394;27;27487;-80
2022/12/03 10:00:56;;;;;;;;;;;;;;;;;;8434794;28;28097;-80
2022/12/03 10:04:56;;;;;;;;;;;;;;;;;;8429559;28;28503;-80
2022/12/03 10:08:58;;;;;;;;;;;;;;;;;;8415086;28;28488;-80
2022/12/03 10:12:58;;;;;;;;;;;;;;;;;;8418179;28;28801;-80
2022/12/03 10:16:59;;;;;;;;;;;;;;;;;;8412703;28;29665;-79
2022/12/03 10:20:59;;;;;;;;;;;;;;;;;;8422322;28;27482;-79
2022/12/03 10:24:59;;;;;;;;;;;;;;;;;;8384194;28;28808;-81
2022/12/03 10:28:59;;;;;;;;;;;;;;;;;;8381102;28;28581;-79
2022/12/03 10:33:01;;;;;;;;;;;;;;;;;;8398500;28;27446;-79
2022/12/03 10:37:01;;;;;;;;;;;;;;;;;;8403587;28;27420;-79
2022/12/03 10:41:01;;;;;;;;;;;;;;;;;;8382950;28;28177;-80
2022/12/03 10:45:01;;;;;;;;;;;;;;;;;;8379875;28;29023;-80
2022/12/03 10:49:01;;;;;;;;;;;;;;;;;;8399697;28;27955;-80
2022/12/03 10:53:01;;;;;;;;;;;;;;;;;;8376111;28;28480;-79
2022/12/03 10:57:01;;;;;;;;;;;;;;;;;;8372422;28;28755;-81
2022/12/03 11:01:04;;;;;;;;;;;;;;;;;;8394079;28;27542;-79
2022/12/03 11:05:04;;;;;;;;;;;;;;;;;;8388316;28;27665;-81
2022/12/03 11:09:05;;;;;;;;;;;;;;;;;;8391129;28;27369;-82
2022/12/03 11:13:05;;;;;;;;;;;;;;;;;;8374819;28;28937;-81
2022/12/03 11:17:05;;;;;;;;;;;;;;;;;;8394736;28;27578;-81
2022/12/03 11:21:05;;;;;;;;;;;;;;;;;;8414062;27;28391;-81
2022/12/03 11:25:06;;;;;;;;;;;;;;;;;;8421683;28;28060;-83
2022/12/03 11:29:06;;;;;;;;;;;;;;;;;;8406378;28;29048;-81
2022/12/03 11:33:06;;;;;;;;;;;;;;;;;;8427945;28;27346;-81
2022/12/03 11:37:06;;;;;;;;;;;;;;;;;;8427858;27;27320;-83
2022/12/03 11:41:07;;;;;;;;;;;;;;;;;;8427646;28;27150;-82
2022/12/03 11:45:07;;;;;;;;;;;;;;;;;;8411925;28;28566;-80
2022/12/03 11:49:07;;;;;;;;;;;;;;;;;;8426279;28;27251;-82
2022/12/03 11:53:07;;;;;;;;;;;;;;;;;;8410578;28;28409;-82
2022/12/03 11:57:07;;;;;;;;;;;;;;;;;;8403203;28;29041;-80
2022/12/03 12:01:07;;;;;;;;;;;;;;;;;;8405835;28;28806;-80
2022/12/03 12:05:07;;;;;;;;;;;;;;;;;;8405833;27;29689;-81
2022/12/03 12:09:07;;;;;;;;;;;;;;;;;;8436588;27;27312;-83
2022/12/03 12:13:07;;;;;;;;;;;;;;;;;;8427950;27;28233;-83
2022/12/03 12:17:07;;;;;;;;;;;;;;;;;;8406197;28;28801;-81
2022/12/03 12:21:08;;;;;;;;;;;;;;;;;;8426511;28;27152;-81
2022/12/03 12:25:08;;;;;;;;;;;;;;;;;;8432733;28;28556;-82
2022/12/03 12:29:08;;;;;;;;;;;;;;;;;;8437933;27;27179;-81
2022/12/03 12:33:08;;;;;;;;;;;;;;;;;;8416950;28;29086;-82
2022/12/03 12:37:08;;;;;;;;;;;;;;;;;;8431586;28;28654;-81
2022/12/03 12:41:08;;;;;;;;;;;;;;;;;;8428963;28;27456;-81
2022/12/03 12:45:08;;;;;;;;;;;;;;;;;;8412512;28;28671;-82
2022/12/03 12:49:08;;;;;;;;;;;;;;;;;;8415730;28;28611;-83
2022/12/03 12:53:08;;;;;;;;;;;;;;;;;;8431693;28;28765;-83
2022/12/03 12:57:08;;;;;;;;;;;;;;;;;;8419833;28;28848;-80
2022/12/03 13:01:09;;;;;;;;;;;;;;;;;;8427426;28;28648;-81
2022/12/03 13:05:09;;;;;;;;;;;;;;;;;;8409700;28;28809;-81
2022/12/03 13:09:09;;;;;;;;;;;;;;;;;;8426224;28;27457;-82
2022/12/03 13:13:09;;;;;;;;;;;;;;;;;;8412759;28;28759;-82
2022/12/03 13:17:09;;;;;;;;;;;;;;;;;;8412741;28;28828;-82
2022/12/03 13:21:09;;;;;;;;;;;;;;;;;;8411207;28;29907;-82
2022/12/03 13:25:09;;;;;;;;;;;;;;;;;;8410000;28;28799;-82
2022/12/03 13:29:09;;;;;;;;;;;;;;;;;;8427121;27;28749;-80
2022/12/03 13:33:10;;;;;;;;;;;;;;;;;;8406645;28;28840;-83
2022/12/03 13:37:10;;;;;;;;;;;;;;;;;;8423372;27;27639;-83
2022/12/03 13:42:37;;;;;;;;;;;;;;;;;;8429191;28;27415;-84
2022/12/03 13:45:30;;;;;;;;;;;;;;;;;;8436711;28;28230;-86
2022/12/03 13:49:30;;;;;;;;;;;;;;;;;;8421640;28;28526;-84
2022/12/03 13:53:30;;;;;;;;;;;;;;;;;;8412284;28;28455;-85
2022/12/03 13:57:31;;;;;;;;;;;;;;;;;;8433379;28;28837;-86
2022/12/03 14:01:31;;;;;;;;;;;;;;;;;;8427788;28;28223;-82
2022/12/03 14:05:31;;;;;;;;;;;;;;;;;;8420948;28;29437;-83
2022/12/03 14:09:31;;;;;;;;;;;;;;;;;;8428721;28;28735;-85
2022/12/03 14:13:31;;;;;;;;;;;;;;;;;;8432905;27;28690;-81
2022/12/03 14:17:31;;;;;;;;;;;;;;;;;;8444226;27;27357;-82
2022/12/03 14:21:31;;;;;;;;;;;;;;;;;;8423376;28;29865;-81
2022/12/03 14:25:31;;;;;;;;;;;;;;;;;;8418860;28;28834;-84
2022/12/03 14:29:32;;;;;;;;;;;;;;;;;;8420223;28;28479;-85
2022/12/03 14:33:32;;;;;;;;;;;;;;;;;;8415234;28;28713;-83
2022/12/03 14:37:32;;;;;;;;;;;;;;;;;;8430594;28;27519;-83
2022/12/03 14:45:51;;;;;;;;;;;;;;;;;;8433255;28;27332;-85
2022/12/03 14:49:51;;;;;;;;;;;;;;;;;;8431757;28;28106;-84
2022/12/03 14:53:51;;;;;;;;;;;;;;;;;;8431200;28;28700;-82
2022/12/03 14:57:52;;;;;;;;;;;;;;;;;;8430954;28;27159;-82
2022/12/03 15:01:52;;;;;;;;;;;;;;;;;;8427905;27;28174;-82
2022/12/03 15:05:52;;;;;;;;;;;;;;;;;;8432449;27;28325;-83
2022/12/03 15:09:52;;;;;;;;;;;;;;;;;;8414380;28;28523;-82
2022/12/03 15:13:52;;;;;;;;;;;;;;;;;;8410216;28;28781;-83
2022/12/03 15:17:52;;;;;;;;;;;;;;;;;;8415703;28;28640;-83
2022/12/03 15:21:52;;;;;;;;;;;;;;;;;;8413395;27;28577;-82
2022/12/03 15:25:52;;;;;;;;;;;;;;;;;;8413323;28;28631;-83
2022/12/03 15:29:52;;;;;;;;;;;;;;;;;;8435990;27;28528;-83
2022/12/03 15:33:52;;;;;;;;;;;;;;;;;;8428661;27;27913;-81
2022/12/03 15:37:52;;;;;;;;;;;;;;;;;;8410899;28;29848;-82
2022/12/03 15:41:53;;;;;;;;;;;;;;;;;;8413557;27;28655;-83
2022/12/03 15:45:53;;;;;;;;;;;;;;;;;;8429007;27;28562;-82
2022/12/03 15:49:53;;;;;;;;;;;;;;;;;;8426549;28;28596;-84
2022/12/03 15:53:53;;;;;;;;;;;;;;;;;;8433912;28;28473;-84
2022/12/03 15:57:53;;;;;;;;;;;;;;;;;;8456586;28;28475;-87
2022/12/03 16:01:53;;;;;;;;;;;;;;;;;;8443126;28;28687;-83
2022/12/03 16:05:53;;;;;;;;;;;;;;;;;;8450889;28;28488;-83
2022/12/03 16:09:53;;;;;;;;;;;;;;;;;;8466354;28;27326;-85
2022/12/03 16:13:53;;;;;;;;;;;;;;;;;;8463569;28;27357;-84
2022/12/03 16:17:54;;;;;;;;;;;;;;;;;;8452927;28;29335;-84
2022/12/03 16:21:54;;;;;;;;;;;;;;;;;;8447148;28;28552;-85
2022/12/03 16:25:54;;;;;;;;;;;;;;;;;;8444536;28;29064;-85
2022/12/03 16:29:55;;;;;;;;;;;;;;;;;;8466143;28;28150;-84
2022/12/03 16:33:55;;;;;;;;;;;;;;;;;;8454373;27;28757;-85
2022/12/03 16:37:55;;;;;;;;;;;;;;;;;;8467293;27;27830;-86
2022/12/03 16:41:55;;;;;;;;;;;;;;;;;;8461613;27;28470;-83
2022/12/03 16:46:08;;;;;;;;;;;;;;;;;;8475431;27;27824;-85
2022/12/03 16:50:08;;;;;;;;;;;;;;;;;;8453165;27;29056;-86
2022/12/03 16:54:10;;;;;;;;;;;;;;;;;;8468948;28;28616;-85
2022/12/03 16:58:10;;;;;;;;;;;;;;;;;;8449438;28;29109;-84
2022/12/03 17:02:11;;;;;;;;;;;;;;;;;;8447914;28;28418;-85
2022/12/03 17:06:11;;;;;;;;;;;;;;;;;;8449516;28;28908;-85
2022/12/03 17:10:11;;;;;;;;;;;;;;;;;;8461472;28;27358;-84
2022/12/03 17:14:11;;;;;;;;;;;;;;;;;;8466721;28;27154;-88
2022/12/03 17:18:11;;;;;;;;;;;;;;;;;;8460036;27;27668;-87
2022/12/03 17:22:11;;;;;;;;;;;;;;;;;;8462966;28;27249;-86
2022/12/03 17:26:12;;;;;;;;;;;;;;;;;;8447889;28;28903;-86
2022/12/03 17:30:12;;;;;;;;;;;;;;;;;;8443007;28;29069;-86
2022/12/03 17:34:12;;;;;;;;;;;;;;;;;;8462625;28;27375;-84
2022/12/03 17:38:12;;;;;;;;;;;;;;;;;;8453989;27;27190;-83
2022/12/03 17:42:12;;;;;;;;;;;;;;;;;;8443158;28;28599;-82
2022/12/03 17:46:12;;;;;;;;;;;;;;;;;;8439733;27;29009;-86
2022/12/03 17:50:12;;;;;;;;;;;;;;;;;;8441050;28;29011;-84
2022/12/03 17:54:12;;;;;;;;;;;;;;;;;;8444010;28;30285;-86
2022/12/03 17:58:12;;;;;;;;;;;;;;;;;;8460401;28;28994;-85
2022/12/03 18:02:13;;;;;;;;;;;;;;;;;;8441921;28;28678;-85
2022/12/03 18:06:13;;;;;;;;;;;;;;;;;;8445900;28;27135;-84
2022/12/03 18:10:13;;;;;;;;;;;;;;;;;;8421646;28;28765;-85
2022/12/03 18:14:13;;;;;;;;;;;;;;;;;;8427517;27;29853;-86
2022/12/03 18:18:13;;;;;;;;;;;;;;;;;;8455242;27;28144;-83
2022/12/03 18:22:13;;;;;;;;;;;;;;;;;;8434037;28;28497;-83
2022/12/03 18:26:13;;;;;;;;;;;;;;;;;;8434160;28;28803;-86
2022/12/03 18:30:13;;;;;;;;;;;;;;;;;;8437111;28;29307;-87
2022/12/03 18:34:13;;;;;;;;;;;;;;;;;;8434491;28;28753;-84
2022/12/03 18:38:13;;;;;;;;;;;;;;;;;;8437332;28;29026;-85
2022/12/03 18:42:13;;;;;;;;;;;;;;;;;;8439087;28;28990;-85
2022/12/03 18:46:14;;;;;;;;;;;;;;;;;;8454224;28;27247;-86
2022/12/03 18:50:14;;;;;;;;;;;;;;;;;;8451967;27;28810;-83
2022/12/03 18:54:14;;;;;;;;;;;;;;;;;;8435193;27;30089;-85
2022/12/03 18:58:14;;;;;;;;;;;;;;;;;;8433712;27;28784;-86
2022/12/03 19:02:14;;;;;;;;;;;;;;;;;;8442780;27;28454;-84
2022/12/03 19:06:14;;;;;;;;;;;;;;;;;;8436820;27;28783;-85
2022/12/03 19:10:14;;;;;;;;;;;;;;;;;;8430263;28;29150;-84
2022/12/03 19:14:14;;;;;;;;;;;;;;;;;;8433759;28;28941;-84
2022/12/03 19:18:14;;;;;;;;;;;;;;;;;;8439006;28;29646;-85
2022/12/03 19:22:14;;;;;;;;;;;;;;;;;;8431733;28;28456;-85
2022/12/03 19:26:14;;;;;;;;;;;;;;;;;;8447479;28;27762;-84
2022/12/03 19:30:15;;;;;;;;;;;;;;;;;;8454608;28;27359;-84
2022/12/03 19:34:15;;;;;;;;;;;;;;;;;;8432347;28;28431;-83
2022/12/03 19:38:15;;;;;;;;;;;;;;;;;;8430264;27;28821;-86
2022/12/03 19:42:16;;;;;;;;;;;;;;;;;;8439150;27;29513;-84
2022/12/03 19:46:16;;;;;;;;;;;;;;;;;;8437714;27;28626;-85
2022/12/03 19:50:16;;;;;;;;;;;;;;;;;;8432411;28;28948;-85
2022/12/03 19:54:16;;;;;;;;;;;;;;;;;;8423958;27;28870;-85
2022/12/03 19:58:16;;;;;;;;;;;;;;;;;;8441087;28;28990;-86
2022/12/03 20:02:16;;;;;;;;;;;;;;;;;;8453661;28;28127;-86
2022/12/03 20:06:17;;;;;;;;;;;;;;;;;;8433508;28;28261;-85
2022/12/03 20:10:17;;;;;;;;;;;;;;;;;;8437161;28;29451;-86
2022/12/03 20:14:17;;;;;;;;;;;;;;;;;;8441986;28;28928;-86
2022/12/03 20:18:17;;;;;;;;;;;;;;;;;;8437618;28;28568;-86
2022/12/03 20:22:17;;;;;;;;;;;;;;;;;;8434807;28;28800;-87
2022/12/03 20:26:17;;;;;;;;;;;;;;;;;;8444466;28;28146;-84
2022/12/03 20:30:17;;;;;;;;;;;;;;;;;;8441884;28;28799;-85
2022/12/03 20:34:17;;;;;;;;;;;;;;;;;;8456367;28;28817;-86
2022/12/03 20:38:18;;;;;;;;;;;;;;;;;;8457823;28;28310;-87
2022/12/03 20:42:18;;;;;;;;;;;;;;;;;;8446675;28;28018;-87
2022/12/03 20:46:18;;;;;;;;;;;;;;;;;;8445949;28;28201;-85
2022/12/03 20:50:18;;;;;;;;;;;;;;;;;;8445626;28;28757;-87
2022/12/03 20:54:18;;;;;;;;;;;;;;;;;;8465242;28;27425;-85
2022/12/03 20:58:18;;;;;;;;;;;;;;;;;;8446658;28;29628;-87
2022/12/03 21:02:18;;;;;;;;;;;;;;;;;;8448405;28;29326;-87
2022/12/03 21:06:18;;;;;;;;;;;;;;;;;;8446922;28;28498;-87
2022/12/03 21:10:43;;;;;;;;;;;;;;;;;;8445198;28;28815;-88
2022/12/03 21:14:43;;;;;;;;;;;;;;;;;;8450946;28;28852;-86
2022/12/03 21:18:43;;;;;;;;;;;;;;;;;;8446475;28;28814;-87
2022/12/03 21:22:44;;;;;;;;;;;;;;;;;;8461893;28;28459;-88
2022/12/03 21:26:44;;;;;;;;;;;;;;;;;;8446037;28;29489;-86
2022/12/03 21:30:44;;;;;;;;;;;;;;;;;;8446551;28;28789;-88
2022/12/03 21:34:44;;;;;;;;;;;;;;;;;;8443339;28;28852;-87
2022/12/03 21:38:44;;;;;;;;;;;;;;;;;;8448429;28;28559;-84
2022/12/03 21:42:44;;;;;;;;;;;;;;;;;;8449316;28;28442;-86
2022/12/03 21:46:44;;;;;;;;;;;;;;;;;;8438720;28;28104;-85
2022/12/03 21:50:44;;;;;;;;;;;;;;;;;;8461948;27;28938;-85
2022/12/03 21:54:44;;;;;;;;;;;;;;;;;;8463827;28;27327;-83
2022/12/03 21:58:44;;;;;;;;;;;;;;;;;;8445179;28;29005;-84
2022/12/03 22:02:45;;;;;;;;;;;;;;;;;;8447217;28;28714;-87
2022/12/03 22:06:45;;;;;;;;;;;;;;;;;;8447377;28;28895;-84
2022/12/03 22:10:45;;;;;;;;;;;;;;;;;;8446820;28;28807;-84
2022/12/03 22:14:45;;;;;;;;;;;;;;;;;;8443564;28;28739;-83
2022/12/03 22:18:45;;;;;;;;;;;;;;;;;;8442691;28;28581;-86
2022/12/03 22:22:45;;;;;;;;;;;;;;;;;;8442927;28;28296;-86
2022/12/03 22:26:46;;;;;;;;;;;;;;;;;;8443792;28;28905;-85
2022/12/03 22:30:46;;;;;;;;;;;;;;;;;;8462249;28;28392;-85
2022/12/03 22:34:46;;;;;;;;;;;;;;;;;;8441542;28;28471;-86
2022/12/03 22:38:46;;;;;;;;;;;;;;;;;;8444926;28;29711;-84
2022/12/03 22:42:46;;;;;;;;;;;;;;;;;;8447605;28;28123;-86
2022/12/03 22:46:46;;;;;;;;;;;;;;;;;;8462802;28;27504;-87
2022/12/03 22:50:46;;;;;;;;;;;;;;;;;;8444726;28;28489;-88
2022/12/03 22:54:47;;;;;;;;;;;;;;;;;;8464450;28;27107;-86
2022/12/03 22:58:47;;;;;;;;;;;;;;;;;;8439814;28;28522;-86
2022/12/03 23:02:47;;;;;;;;;;;;;;;;;;8440617;27;28571;-85
2022/12/03 23:06:47;;;;;;;;;;;;;;;;;;8444551;28;28431;-87
2022/12/03 23:10:47;;;;;;;;;;;;;;;;;;8462757;28;28233;-87
2022/12/03 23:14:47;;;;;;;;;;;;;;;;;;8445598;28;28952;-85
2022/12/03 23:18:47;;;;;;;;;;;;;;;;;;8438867;28;28613;-83
2022/12/03 23:22:47;;;;;;;;;;;;;;;;;;8460928;28;27354;-84
2022/12/03 23:26:47;;;;;;;;;;;;;;;;;;8462047;28;27128;-82
2022/12/03 23:30:47;;;;;;;;;;;;;;;;;;8440909;28;28462;-86
2022/12/03 23:34:48;;;;;;;;;;;;;;;;;;8455886;28;28878;-83
2022/12/03 23:38:48;;;;;;;;;;;;;;;;;;8460321;28;28255;-84
2022/12/03 23:42:48;;;;;;;;;;;;;;;;;;8439190;28;28554;-83
2022/12/03 23:46:48;;;;;;;;;;;;;;;;;;8441711;28;28738;-85
2022/12/03 23:50:48;;;;;;;;;;;;;;;;;;8444108;28;28495;-87
2022/12/03 23:54:48;;;;;;;;;;;;;;;;;;8444836;28;28213;-85
2022/12/03 23:58:48;;;;;;;;;;;;;;;;;;8441805;28;28735;-88
